sensor_id;sensor_type;location;lat;lon;timestamp;P1;durP1;ratioP1;P2;durP2;ratioP2
51915;SDS011;37942;53.218;6.548;2022-09-13T00:00:55;43.53;;;26.63;;
51915;SDS011;37942;53.218;6.548;2022-09-13T00:03:22;44.33;;;29.00;;
51915;SDS011;37942;53.218;6.548;2022-09-13T00:05:48;45.28;;;29.77;;
51915;SDS011;37942;53.218;6.548;2022-09-13T00:08:15;42.72;;;28.90;;
51915;SDS011;37942;53.218;6.548;2022-09-13T00:10:41;44.05;;;28.40;;
51915;SDS011;37942;53.218;6.548;2022-09-13T00:13:08;42.70;;;29.38;;
51915;SDS011;37942;53.218;6.548;2022-09-13T00:15:35;45.83;;;28.60;;
51915;SDS011;37942;53.218;6.548;2022-09-13T00:18:01;47.47;;;30.60;;
51915;SDS011;37942;53.218;6.548;2022-09-13T00:22:53;45.45;;;30.25;;
51915;SDS011;37942;53.218;6.548;2022-09-13T00:25:19;48.53;;;30.88;;
51915;SDS011;37942;53.218;6.548;2022-09-13T00:30:11;45.05;;;27.95;;
51915;SDS011;37942;53.218;6.548;2022-09-13T00:32:38;37.72;;;25.55;;
51915;SDS011;37942;53.218;6.548;2022-09-13T00:35:05;42.20;;;25.80;;
51915;SDS011;37942;53.218;6.548;2022-09-13T00:37:32;34.28;;;23.98;;
51915;SDS011;37942;53.218;6.548;2022-09-13T00:39:58;37.25;;;23.80;;
51915;SDS011;37942;53.218;6.548;2022-09-13T00:42:28;40.15;;;25.50;;
51915;SDS011;37942;53.218;6.548;2022-09-13T00:47:33;37.47;;;24.05;;
51915;SDS011;37942;53.218;6.548;2022-09-13T00:52:32;38.70;;;26.40;;
51915;SDS011;37942;53.218;6.548;2022-09-13T00:55:00;43.90;;;26.55;;
51915;SDS011;37942;53.218;6.548;2022-09-13T00:57:30;46.80;;;27.35;;
51915;SDS011;37942;53.218;6.548;2022-09-13T01:00:18;44.50;;;27.30;;
51915;SDS011;37942;53.218;6.548;2022-09-13T01:02:45;49.38;;;30.58;;
51915;SDS011;37942;53.218;6.548;2022-09-13T01:05:13;51.13;;;31.08;;
51915;SDS011;37942;53.218;6.548;2022-09-13T01:07:39;52.78;;;32.00;;
51915;SDS011;37942;53.218;6.548;2022-09-13T01:10:06;47.05;;;29.25;;
51915;SDS011;37942;53.218;6.548;2022-09-13T01:12:43;47.72;;;31.55;;
51915;SDS011;37942;53.218;6.548;2022-09-13T01:15:12;49.78;;;31.50;;
51915;SDS011;37942;53.218;6.548;2022-09-13T01:20:05;46.83;;;29.50;;
51915;SDS011;37942;53.218;6.548;2022-09-13T01:22:37;45.88;;;30.35;;
51915;SDS011;37942;53.218;6.548;2022-09-13T01:30:27;44.75;;;27.92;;
51915;SDS011;37942;53.218;6.548;2022-09-13T01:35:45;43.63;;;27.15;;
51915;SDS011;37942;53.218;6.548;2022-09-13T01:38:17;36.92;;;24.95;;
51915;SDS011;37942;53.218;6.548;2022-09-13T01:40:58;38.97;;;24.20;;
51915;SDS011;37942;53.218;6.548;2022-09-13T01:43:41;39.70;;;23.85;;
51915;SDS011;37942;53.218;6.548;2022-09-13T01:46:17;35.83;;;23.45;;
51915;SDS011;37942;53.218;6.548;2022-09-13T01:53:57;31.92;;;21.38;;
51915;SDS011;37942;53.218;6.548;2022-09-13T01:59:00;31.48;;;21.45;;
51915;SDS011;37942;53.218;6.548;2022-09-13T02:01:29;31.25;;;21.10;;
51915;SDS011;37942;53.218;6.548;2022-09-13T02:04:11;29.00;;;19.92;;
51915;SDS011;37942;53.218;6.548;2022-09-13T02:06:45;31.90;;;20.23;;
51915;SDS011;37942;53.218;6.548;2022-09-13T02:09:14;32.78;;;20.88;;
51915;SDS011;37942;53.218;6.548;2022-09-13T02:11:41;32.97;;;20.92;;
51915;SDS011;37942;53.218;6.548;2022-09-13T02:14:13;31.98;;;20.55;;
51915;SDS011;37942;53.218;6.548;2022-09-13T02:16:40;30.90;;;20.70;;
51915;SDS011;37942;53.218;6.548;2022-09-13T02:19:19;33.50;;;21.80;;
51915;SDS011;37942;53.218;6.548;2022-09-13T02:21:48;31.30;;;21.20;;
51915;SDS011;37942;53.218;6.548;2022-09-13T02:24:18;33.60;;;21.33;;
51915;SDS011;37942;53.218;6.548;2022-09-13T02:26:46;31.52;;;20.80;;
51915;SDS011;37942;53.218;6.548;2022-09-13T02:29:17;32.38;;;21.10;;
51915;SDS011;37942;53.218;6.548;2022-09-13T02:31:46;36.88;;;22.42;;
51915;SDS011;37942;53.218;6.548;2022-09-13T02:34:17;32.58;;;20.17;;
51915;SDS011;37942;53.218;6.548;2022-09-13T02:36:45;32.13;;;21.40;;
51915;SDS011;37942;53.218;6.548;2022-09-13T02:39:14;34.20;;;21.35;;
51915;SDS011;37942;53.218;6.548;2022-09-13T02:44:27;36.22;;;21.40;;
51915;SDS011;37942;53.218;6.548;2022-09-13T02:54:56;35.72;;;22.73;;
51915;SDS011;37942;53.218;6.548;2022-09-13T02:57:30;36.08;;;21.40;;
51915;SDS011;37942;53.218;6.548;2022-09-13T02:59:57;32.22;;;21.30;;
51915;SDS011;37942;53.218;6.548;2022-09-13T03:02:24;35.17;;;22.20;;
51915;SDS011;37942;53.218;6.548;2022-09-13T03:04:52;32.55;;;20.77;;
51915;SDS011;37942;53.218;6.548;2022-09-13T03:10:05;28.83;;;17.33;;
51915;SDS011;37942;53.218;6.548;2022-09-13T03:15:33;22.02;;;13.63;;
51915;SDS011;37942;53.218;6.548;2022-09-13T03:18:29;20.20;;;11.05;;
51915;SDS011;37942;53.218;6.548;2022-09-13T03:26:22;15.38;;;6.70;;
51915;SDS011;37942;53.218;6.548;2022-09-13T03:29:03;14.55;;;6.30;;
51915;SDS011;37942;53.218;6.548;2022-09-13T03:31:35;13.48;;;5.72;;
51915;SDS011;37942;53.218;6.548;2022-09-13T03:36:35;10.85;;;4.05;;
51915;SDS011;37942;53.218;6.548;2022-09-13T03:41:32;10.82;;;3.60;;
51915;SDS011;37942;53.218;6.548;2022-09-13T03:44:01;10.82;;;3.53;;
51915;SDS011;37942;53.218;6.548;2022-09-13T03:46:29;9.52;;;3.70;;
51915;SDS011;37942;53.218;6.548;2022-09-13T03:48:57;10.30;;;3.13;;
51915;SDS011;37942;53.218;6.548;2022-09-13T03:51:25;9.65;;;3.30;;
51915;SDS011;37942;53.218;6.548;2022-09-13T03:53:53;11.85;;;3.10;;
51915;SDS011;37942;53.218;6.548;2022-09-13T03:56:21;12.52;;;3.50;;
51915;SDS011;37942;53.218;6.548;2022-09-13T03:58:47;8.85;;;2.80;;
51915;SDS011;37942;53.218;6.548;2022-09-13T04:01:14;9.90;;;3.35;;
51915;SDS011;37942;53.218;6.548;2022-09-13T04:03:43;10.43;;;3.08;;
51915;SDS011;37942;53.218;6.548;2022-09-13T04:06:09;9.02;;;2.85;;
51915;SDS011;37942;53.218;6.548;2022-09-13T04:08:35;16.50;;;6.97;;
51915;SDS011;37942;53.218;6.548;2022-09-13T04:11:01;13.57;;;7.05;;
51915;SDS011;37942;53.218;6.548;2022-09-13T04:13:27;12.40;;;6.85;;
51915;SDS011;37942;53.218;6.548;2022-09-13T04:15:53;11.48;;;6.30;;
51915;SDS011;37942;53.218;6.548;2022-09-13T04:18:19;13.68;;;6.43;;
51915;SDS011;37942;53.218;6.548;2022-09-13T04:20:52;14.45;;;7.55;;
51915;SDS011;37942;53.218;6.548;2022-09-13T04:23:19;13.45;;;7.63;;
51915;SDS011;37942;53.218;6.548;2022-09-13T04:25:45;15.05;;;7.47;;
51915;SDS011;37942;53.218;6.548;2022-09-13T04:28:11;15.57;;;8.00;;
51915;SDS011;37942;53.218;6.548;2022-09-13T04:30:37;13.20;;;7.00;;
51915;SDS011;37942;53.218;6.548;2022-09-13T04:33:03;16.48;;;7.70;;
51915;SDS011;37942;53.218;6.548;2022-09-13T04:35:29;15.50;;;6.05;;
51915;SDS011;37942;53.218;6.548;2022-09-13T04:37:55;11.95;;;4.55;;
51915;SDS011;37942;53.218;6.548;2022-09-13T04:40:24;12.23;;;4.35;;
51915;SDS011;37942;53.218;6.548;2022-09-13T04:45:16;13.18;;;4.60;;
51915;SDS011;37942;53.218;6.548;2022-09-13T04:47:42;10.55;;;4.80;;
51915;SDS011;37942;53.218;6.548;2022-09-13T04:50:08;13.32;;;5.00;;
51915;SDS011;37942;53.218;6.548;2022-09-13T04:55:00;14.98;;;4.80;;
51915;SDS011;37942;53.218;6.548;2022-09-13T04:57:27;12.90;;;5.10;;
51915;SDS011;37942;53.218;6.548;2022-09-13T04:59:53;12.52;;;5.00;;
51915;SDS011;37942;53.218;6.548;2022-09-13T05:02:19;12.40;;;4.88;;
51915;SDS011;37942;53.218;6.548;2022-09-13T05:04:45;14.38;;;4.95;;
51915;SDS011;37942;53.218;6.548;2022-09-13T05:07:11;12.27;;;5.30;;
51915;SDS011;37942;53.218;6.548;2022-09-13T05:12:03;12.95;;;6.03;;
51915;SDS011;37942;53.218;6.548;2022-09-13T05:14:32;15.95;;;8.68;;
51915;SDS011;37942;53.218;6.548;2022-09-13T05:16:59;18.73;;;9.52;;
51915;SDS011;37942;53.218;6.548;2022-09-13T05:21:51;14.32;;;6.57;;
51915;SDS011;37942;53.218;6.548;2022-09-13T05:24:17;13.32;;;5.35;;
51915;SDS011;37942;53.218;6.548;2022-09-13T05:29:09;16.38;;;5.53;;
51915;SDS011;37942;53.218;6.548;2022-09-13T05:31:36;11.85;;;5.13;;
51915;SDS011;37942;53.218;6.548;2022-09-13T05:34:04;15.02;;;5.60;;
51915;SDS011;37942;53.218;6.548;2022-09-13T05:36:31;16.20;;;5.43;;
51915;SDS011;37942;53.218;6.548;2022-09-13T05:38:57;16.92;;;5.35;;
51915;SDS011;37942;53.218;6.548;2022-09-13T05:41:24;16.83;;;5.18;;
51915;SDS011;37942;53.218;6.548;2022-09-13T05:43:50;15.65;;;5.03;;
51915;SDS011;37942;53.218;6.548;2022-09-13T05:48:43;14.38;;;5.45;;
51915;SDS011;37942;53.218;6.548;2022-09-13T05:51:11;19.33;;;5.93;;
51915;SDS011;37942;53.218;6.548;2022-09-13T05:53:37;13.70;;;5.25;;
51915;SDS011;37942;53.218;6.548;2022-09-13T05:56:07;16.73;;;4.70;;
51915;SDS011;37942;53.218;6.548;2022-09-13T05:58:33;16.23;;;5.18;;
51915;SDS011;37942;53.218;6.548;2022-09-13T06:00:59;16.00;;;4.82;;
51915;SDS011;37942;53.218;6.548;2022-09-13T06:03:25;16.55;;;5.07;;
51915;SDS011;37942;53.218;6.548;2022-09-13T06:05:55;15.32;;;5.13;;
51915;SDS011;37942;53.218;6.548;2022-09-13T06:08:24;15.90;;;5.03;;
51915;SDS011;37942;53.218;6.548;2022-09-13T06:11:03;18.20;;;4.88;;
51915;SDS011;37942;53.218;6.548;2022-09-13T06:13:29;14.70;;;4.80;;
51915;SDS011;37942;53.218;6.548;2022-09-13T06:15:56;17.50;;;4.97;;
51915;SDS011;37942;53.218;6.548;2022-09-13T06:18:22;16.25;;;4.82;;
51915;SDS011;37942;53.218;6.548;2022-09-13T06:20:49;18.77;;;5.43;;
51915;SDS011;37942;53.218;6.548;2022-09-13T06:25:41;15.93;;;4.68;;
51915;SDS011;37942;53.218;6.548;2022-09-13T06:28:08;14.73;;;4.60;;
51915;SDS011;37942;53.218;6.548;2022-09-13T06:30:34;18.08;;;4.60;;
51915;SDS011;37942;53.218;6.548;2022-09-13T06:33:00;18.38;;;4.65;;
51915;SDS011;37942;53.218;6.548;2022-09-13T06:35:26;15.60;;;4.90;;
51915;SDS011;37942;53.218;6.548;2022-09-13T06:37:55;15.10;;;4.85;;
51915;SDS011;37942;53.218;6.548;2022-09-13T06:40:23;13.52;;;4.47;;
51915;SDS011;37942;53.218;6.548;2022-09-13T06:42:49;16.33;;;4.65;;
51915;SDS011;37942;53.218;6.548;2022-09-13T06:45:15;17.60;;;4.60;;
51915;SDS011;37942;53.218;6.548;2022-09-13T06:47:42;13.43;;;4.82;;
51915;SDS011;37942;53.218;6.548;2022-09-13T06:50:08;15.45;;;3.80;;
51915;SDS011;37942;53.218;6.548;2022-09-13T06:52:34;15.18;;;3.88;;
51915;SDS011;37942;53.218;6.548;2022-09-13T06:55:04;16.27;;;4.50;;
51915;SDS011;37942;53.218;6.548;2022-09-13T06:59:56;16.63;;;4.57;;
51915;SDS011;37942;53.218;6.548;2022-09-13T07:02:22;16.75;;;4.40;;
51915;SDS011;37942;53.218;6.548;2022-09-13T07:04:49;11.68;;;4.30;;
51915;SDS011;37942;53.218;6.548;2022-09-13T07:07:15;16.75;;;4.18;;
51915;SDS011;37942;53.218;6.548;2022-09-13T07:09:42;15.50;;;4.00;;
51915;SDS011;37942;53.218;6.548;2022-09-13T07:12:08;13.52;;;3.75;;
51915;SDS011;37942;53.218;6.548;2022-09-13T07:14:34;14.57;;;3.80;;
51915;SDS011;37942;53.218;6.548;2022-09-13T07:17:00;16.48;;;4.13;;
51915;SDS011;37942;53.218;6.548;2022-09-13T07:19:27;14.18;;;3.10;;
51915;SDS011;37942;53.218;6.548;2022-09-13T07:24:20;11.85;;;2.47;;
51915;SDS011;37942;53.218;6.548;2022-09-13T07:26:48;15.63;;;2.67;;
51915;SDS011;37942;53.218;6.548;2022-09-13T07:29:15;10.60;;;2.70;;
51915;SDS011;37942;53.218;6.548;2022-09-13T07:31:43;11.10;;;2.45;;
51915;SDS011;37942;53.218;6.548;2022-09-13T07:34:15;11.93;;;2.30;;
51915;SDS011;37942;53.218;6.548;2022-09-13T07:36:41;11.55;;;2.47;;
51915;SDS011;37942;53.218;6.548;2022-09-13T07:39:09;9.63;;;2.60;;
51915;SDS011;37942;53.218;6.548;2022-09-13T07:41:35;9.10;;;2.40;;
51915;SDS011;37942;53.218;6.548;2022-09-13T07:46:28;10.82;;;2.03;;
51915;SDS011;37942;53.218;6.548;2022-09-13T07:48:58;10.93;;;2.70;;
51915;SDS011;37942;53.218;6.548;2022-09-13T07:51:26;13.20;;;2.60;;
51915;SDS011;37942;53.218;6.548;2022-09-13T07:53:59;8.38;;;2.10;;
51915;SDS011;37942;53.218;6.548;2022-09-13T07:56:27;10.95;;;2.25;;
51915;SDS011;37942;53.218;6.548;2022-09-13T07:58:53;9.23;;;2.38;;
51915;SDS011;37942;53.218;6.548;2022-09-13T08:01:20;13.27;;;2.47;;
51915;SDS011;37942;53.218;6.548;2022-09-13T08:03:50;12.95;;;2.10;;
51915;SDS011;37942;53.218;6.548;2022-09-13T08:06:18;13.52;;;2.78;;
51915;SDS011;37942;53.218;6.548;2022-09-13T08:11:12;11.80;;;2.65;;
51915;SDS011;37942;53.218;6.548;2022-09-13T08:13:39;12.80;;;2.45;;
51915;SDS011;37942;53.218;6.548;2022-09-13T08:16:05;14.82;;;2.53;;
51915;SDS011;37942;53.218;6.548;2022-09-13T08:20:58;16.67;;;3.10;;
51915;SDS011;37942;53.218;6.548;2022-09-13T08:23:24;15.98;;;2.78;;
51915;SDS011;37942;53.218;6.548;2022-09-13T08:25:51;11.82;;;2.40;;
51915;SDS011;37942;53.218;6.548;2022-09-13T08:28:18;13.68;;;2.30;;
51915;SDS011;37942;53.218;6.548;2022-09-13T08:30:45;10.20;;;2.25;;
51915;SDS011;37942;53.218;6.548;2022-09-13T08:33:13;12.10;;;2.10;;
51915;SDS011;37942;53.218;6.548;2022-09-13T08:38:06;11.85;;;2.50;;
51915;SDS011;37942;53.218;6.548;2022-09-13T08:40:42;16.60;;;2.20;;
51915;SDS011;37942;53.218;6.548;2022-09-13T08:45:36;14.35;;;2.40;;
51915;SDS011;37942;53.218;6.548;2022-09-13T08:48:03;15.05;;;2.15;;
51915;SDS011;37942;53.218;6.548;2022-09-13T08:50:35;12.20;;;2.50;;
51915;SDS011;37942;53.218;6.548;2022-09-13T08:58:00;17.33;;;2.80;;
51915;SDS011;37942;53.218;6.548;2022-09-13T09:00:30;18.10;;;2.85;;
51915;SDS011;37942;53.218;6.548;2022-09-13T09:05:25;16.45;;;2.67;;
51915;SDS011;37942;53.218;6.548;2022-09-13T09:07:57;9.80;;;1.95;;
51915;SDS011;37942;53.218;6.548;2022-09-13T09:10:27;13.75;;;2.35;;
51915;SDS011;37942;53.218;6.548;2022-09-13T09:12:58;12.93;;;2.53;;
51915;SDS011;37942;53.218;6.548;2022-09-13T09:15:44;11.10;;;2.10;;
51915;SDS011;37942;53.218;6.548;2022-09-13T09:18:21;8.57;;;2.10;;
51915;SDS011;37942;53.218;6.548;2022-09-13T09:20:52;13.73;;;2.53;;
51915;SDS011;37942;53.218;6.548;2022-09-13T09:23:29;12.23;;;2.40;;
51915;SDS011;37942;53.218;6.548;2022-09-13T09:25:59;11.18;;;2.20;;
51915;SDS011;37942;53.218;6.548;2022-09-13T09:28:30;9.45;;;2.10;;
51915;SDS011;37942;53.218;6.548;2022-09-13T09:31:01;10.18;;;2.40;;
51915;SDS011;37942;53.218;6.548;2022-09-13T09:36:05;9.10;;;1.80;;
51915;SDS011;37942;53.218;6.548;2022-09-13T09:38:39;12.68;;;2.25;;
51915;SDS011;37942;53.218;6.548;2022-09-13T09:46:18;13.45;;;2.40;;
51915;SDS011;37942;53.218;6.548;2022-09-13T09:48:53;12.57;;;2.03;;
51915;SDS011;37942;53.218;6.548;2022-09-13T09:51:20;13.10;;;2.30;;
51915;SDS011;37942;53.218;6.548;2022-09-13T09:53:48;13.48;;;2.50;;
51915;SDS011;37942;53.218;6.548;2022-09-13T10:03:49;12.13;;;2.30;;
51915;SDS011;37942;53.218;6.548;2022-09-13T10:06:19;12.15;;;2.22;;
51915;SDS011;37942;53.218;6.548;2022-09-13T10:08:47;10.98;;;2.30;;
51915;SDS011;37942;53.218;6.548;2022-09-13T10:11:20;17.05;;;2.42;;
51915;SDS011;37942;53.218;6.548;2022-09-13T10:13:56;14.63;;;2.35;;
51915;SDS011;37942;53.218;6.548;2022-09-13T10:16:24;11.55;;;2.30;;
51915;SDS011;37942;53.218;6.548;2022-09-13T10:18:52;13.88;;;2.30;;
51915;SDS011;37942;53.218;6.548;2022-09-13T10:23:45;10.23;;;2.05;;
51915;SDS011;37942;53.218;6.548;2022-09-13T10:26:21;8.50;;;1.88;;
51915;SDS011;37942;53.218;6.548;2022-09-13T10:28:58;10.88;;;2.47;;
51915;SDS011;37942;53.218;6.548;2022-09-13T10:31:32;15.32;;;2.08;;
51915;SDS011;37942;53.218;6.548;2022-09-13T10:34:00;9.02;;;1.90;;
51915;SDS011;37942;53.218;6.548;2022-09-13T10:36:36;11.30;;;2.20;;
51915;SDS011;37942;53.218;6.548;2022-09-13T10:39:03;8.70;;;1.90;;
51915;SDS011;37942;53.218;6.548;2022-09-13T10:41:33;6.75;;;1.70;;
51915;SDS011;37942;53.218;6.548;2022-09-13T10:44:03;9.10;;;2.08;;
51915;SDS011;37942;53.218;6.548;2022-09-13T10:46:35;9.55;;;2.25;;
51915;SDS011;37942;53.218;6.548;2022-09-13T10:49:02;12.75;;;2.60;;
51915;SDS011;37942;53.218;6.548;2022-09-13T10:54:16;11.18;;;2.30;;
51915;SDS011;37942;53.218;6.548;2022-09-13T10:56:42;12.95;;;2.33;;
51915;SDS011;37942;53.218;6.548;2022-09-13T10:59:28;11.30;;;1.70;;
51915;SDS011;37942;53.218;6.548;2022-09-13T11:09:52;8.52;;;1.80;;
51915;SDS011;37942;53.218;6.548;2022-09-13T11:12:34;9.13;;;2.15;;
51915;SDS011;37942;53.218;6.548;2022-09-13T11:17:36;8.32;;;1.70;;
51915;SDS011;37942;53.218;6.548;2022-09-13T11:28:00;21.75;;;2.42;;
51915;SDS011;37942;53.218;6.548;2022-09-13T11:30:30;12.18;;;1.95;;
51915;SDS011;37942;53.218;6.548;2022-09-13T11:35:32;10.13;;;2.53;;
51915;SDS011;37942;53.218;6.548;2022-09-13T11:56:07;9.00;;;2.15;;
51915;SDS011;37942;53.218;6.548;2022-09-13T12:01:06;14.38;;;2.28;;
51915;SDS011;37942;53.218;6.548;2022-09-13T12:03:38;14.32;;;2.40;;
51915;SDS011;37942;53.218;6.548;2022-09-13T12:06:17;13.40;;;2.38;;
51915;SDS011;37942;53.218;6.548;2022-09-13T12:08:46;9.68;;;2.13;;
51915;SDS011;37942;53.218;6.548;2022-09-13T12:11:18;8.82;;;2.10;;
51915;SDS011;37942;53.218;6.548;2022-09-13T12:13:53;16.17;;;2.25;;
51915;SDS011;37942;53.218;6.548;2022-09-13T12:16:22;10.15;;;2.22;;
51915;SDS011;37942;53.218;6.548;2022-09-13T12:18:52;14.27;;;2.05;;
51915;SDS011;37942;53.218;6.548;2022-09-13T12:21:19;11.35;;;2.17;;
51915;SDS011;37942;53.218;6.548;2022-09-13T12:26:29;21.00;;;2.92;;
51915;SDS011;37942;53.218;6.548;2022-09-13T12:29:00;12.88;;;2.42;;
51915;SDS011;37942;53.218;6.548;2022-09-13T12:31:29;16.70;;;2.90;;
51915;SDS011;37942;53.218;6.548;2022-09-13T12:33:56;18.67;;;2.80;;
51915;SDS011;37942;53.218;6.548;2022-09-13T12:41:40;15.75;;;3.17;;
51915;SDS011;37942;53.218;6.548;2022-09-13T12:52:01;14.02;;;2.67;;
51915;SDS011;37942;53.218;6.548;2022-09-13T12:59:50;10.93;;;2.15;;
51915;SDS011;37942;53.218;6.548;2022-09-13T13:02:27;12.60;;;2.42;;
51915;SDS011;37942;53.218;6.548;2022-09-13T13:04:58;12.90;;;2.17;;
51915;SDS011;37942;53.218;6.548;2022-09-13T13:07:24;11.85;;;2.25;;
51915;SDS011;37942;53.218;6.548;2022-09-13T13:09:52;13.43;;;2.65;;
51915;SDS011;37942;53.218;6.548;2022-09-13T13:14:58;15.88;;;2.10;;
51915;SDS011;37942;53.218;6.548;2022-09-13T13:20:37;11.65;;;2.22;;
51915;SDS011;37942;53.218;6.548;2022-09-13T13:22:49;11.65;;;2.83;;
51915;SDS011;37942;53.218;6.548;2022-09-13T13:27:57;11.60;;;2.78;;
51915;SDS011;37942;53.218;6.548;2022-09-13T13:35:34;12.25;;;2.25;;
51915;SDS011;37942;53.218;6.548;2022-09-13T13:40:26;13.65;;;2.63;;
51915;SDS011;37942;53.218;6.548;2022-09-13T13:43:13;11.27;;;2.50;;
51915;SDS011;37942;53.218;6.548;2022-09-13T13:45:39;14.30;;;2.70;;
51915;SDS011;37942;53.218;6.548;2022-09-13T13:48:35;11.50;;;1.92;;
51915;SDS011;37942;53.218;6.548;2022-09-13T13:53:37;12.75;;;2.10;;
51915;SDS011;37942;53.218;6.548;2022-09-13T13:56:14;11.88;;;2.33;;
51915;SDS011;37942;53.218;6.548;2022-09-13T13:58:44;14.07;;;2.75;;
51915;SDS011;37942;53.218;6.548;2022-09-13T14:01:31;11.20;;;2.10;;
51915;SDS011;37942;53.218;6.548;2022-09-13T14:06:34;13.95;;;2.25;;
51915;SDS011;37942;53.218;6.548;2022-09-13T14:12:50;12.15;;;2.20;;
51915;SDS011;37942;53.218;6.548;2022-09-13T14:19:50;13.30;;;2.28;;
51915;SDS011;37942;53.218;6.548;2022-09-13T14:22:22;15.45;;;2.50;;
51915;SDS011;37942;53.218;6.548;2022-09-13T14:24:50;10.43;;;2.10;;
51915;SDS011;37942;53.218;6.548;2022-09-13T14:27:21;12.55;;;2.00;;
51915;SDS011;37942;53.218;6.548;2022-09-13T14:30:01;10.75;;;1.80;;
51915;SDS011;37942;53.218;6.548;2022-09-13T14:32:38;12.57;;;1.90;;
51915;SDS011;37942;53.218;6.548;2022-09-13T14:35:06;11.93;;;2.38;;
51915;SDS011;37942;53.218;6.548;2022-09-13T14:37:46;11.80;;;2.20;;
51915;SDS011;37942;53.218;6.548;2022-09-13T14:42:43;13.20;;;2.40;;
51915;SDS011;37942;53.218;6.548;2022-09-13T14:45:12;12.77;;;1.98;;
51915;SDS011;37942;53.218;6.548;2022-09-13T14:50:13;8.80;;;1.90;;
51915;SDS011;37942;53.218;6.548;2022-09-13T14:52:56;13.77;;;2.35;;
51915;SDS011;37942;53.218;6.548;2022-09-13T14:55:30;9.50;;;1.95;;
51915;SDS011;37942;53.218;6.548;2022-09-13T14:58:05;8.82;;;1.90;;
51915;SDS011;37942;53.218;6.548;2022-09-13T15:00:32;12.25;;;2.22;;
51915;SDS011;37942;53.218;6.548;2022-09-13T15:03:02;13.52;;;2.45;;
51915;SDS011;37942;53.218;6.548;2022-09-13T15:05:30;11.13;;;2.20;;
51915;SDS011;37942;53.218;6.548;2022-09-13T15:07:57;12.93;;;1.90;;
51915;SDS011;37942;53.218;6.548;2022-09-13T15:10:27;9.93;;;2.20;;
51915;SDS011;37942;53.218;6.548;2022-09-13T15:17:57;13.00;;;2.25;;
51915;SDS011;37942;53.218;6.548;2022-09-13T15:20:28;11.52;;;2.08;;
51915;SDS011;37942;53.218;6.548;2022-09-13T15:22:55;13.48;;;2.30;;
51915;SDS011;37942;53.218;6.548;2022-09-13T15:25:23;7.95;;;1.80;;
51915;SDS011;37942;53.218;6.548;2022-09-13T15:27:50;8.73;;;1.77;;
51915;SDS011;37942;53.218;6.548;2022-09-13T15:30:21;10.77;;;2.03;;
51915;SDS011;37942;53.218;6.548;2022-09-13T15:32:49;12.18;;;1.98;;
51915;SDS011;37942;53.218;6.548;2022-09-13T15:35:30;13.35;;;1.98;;
51915;SDS011;37942;53.218;6.548;2022-09-13T15:37:59;10.55;;;2.00;;
51915;SDS011;37942;53.218;6.548;2022-09-13T15:40:27;12.13;;;2.10;;
51915;SDS011;37942;53.218;6.548;2022-09-13T15:42:55;9.05;;;1.73;;
51915;SDS011;37942;53.218;6.548;2022-09-13T15:45:22;12.70;;;2.35;;
51915;SDS011;37942;53.218;6.548;2022-09-13T15:47:49;8.23;;;2.03;;
51915;SDS011;37942;53.218;6.548;2022-09-13T15:50:20;11.68;;;2.50;;
51915;SDS011;37942;53.218;6.548;2022-09-13T15:52:46;9.48;;;2.00;;
51915;SDS011;37942;53.218;6.548;2022-09-13T15:55:15;14.65;;;2.35;;
51915;SDS011;37942;53.218;6.548;2022-09-13T16:00:12;9.02;;;1.52;;
51915;SDS011;37942;53.218;6.548;2022-09-13T16:02:39;8.43;;;2.03;;
51915;SDS011;37942;53.218;6.548;2022-09-13T16:05:05;13.60;;;1.80;;
51915;SDS011;37942;53.218;6.548;2022-09-13T16:07:32;9.50;;;1.80;;
51915;SDS011;37942;53.218;6.548;2022-09-13T16:09:59;11.07;;;2.15;;
51915;SDS011;37942;53.218;6.548;2022-09-13T16:12:25;10.27;;;1.75;;
51915;SDS011;37942;53.218;6.548;2022-09-13T16:17:25;11.10;;;2.03;;
51915;SDS011;37942;53.218;6.548;2022-09-13T16:19:51;10.88;;;1.95;;
51915;SDS011;37942;53.218;6.548;2022-09-13T16:22:18;13.13;;;2.30;;
51915;SDS011;37942;53.218;6.548;2022-09-13T16:24:44;11.00;;;2.00;;
51915;SDS011;37942;53.218;6.548;2022-09-13T16:29:36;8.63;;;2.22;;
51915;SDS011;37942;53.218;6.548;2022-09-13T16:34:29;12.05;;;2.30;;
51915;SDS011;37942;53.218;6.548;2022-09-13T16:36:58;10.65;;;2.10;;
51915;SDS011;37942;53.218;6.548;2022-09-13T16:41:51;14.82;;;2.40;;
51915;SDS011;37942;53.218;6.548;2022-09-13T16:44:19;13.75;;;2.10;;
51915;SDS011;37942;53.218;6.548;2022-09-13T16:46:45;7.82;;;2.08;;
51915;SDS011;37942;53.218;6.548;2022-09-13T16:51:37;14.55;;;2.42;;
51915;SDS011;37942;53.218;6.548;2022-09-13T16:54:04;11.15;;;2.00;;
51915;SDS011;37942;53.218;6.548;2022-09-13T16:56:30;11.80;;;1.90;;
51915;SDS011;37942;53.218;6.548;2022-09-13T17:01:26;9.70;;;1.95;;
51915;SDS011;37942;53.218;6.548;2022-09-13T17:03:52;12.73;;;2.42;;
51915;SDS011;37942;53.218;6.548;2022-09-13T17:06:19;9.23;;;1.90;;
51915;SDS011;37942;53.218;6.548;2022-09-13T17:08:49;8.25;;;1.95;;
51915;SDS011;37942;53.218;6.548;2022-09-13T17:11:16;10.25;;;1.98;;
51915;SDS011;37942;53.218;6.548;2022-09-13T17:13:43;10.60;;;1.92;;
51915;SDS011;37942;53.218;6.548;2022-09-13T17:16:29;10.95;;;1.80;;
51915;SDS011;37942;53.218;6.548;2022-09-13T17:18:56;7.93;;;1.65;;
51915;SDS011;37942;53.218;6.548;2022-09-13T17:21:23;10.02;;;1.80;;
51915;SDS011;37942;53.218;6.548;2022-09-13T17:23:49;10.93;;;2.03;;
51915;SDS011;37942;53.218;6.548;2022-09-13T17:26:15;12.20;;;2.25;;
51915;SDS011;37942;53.218;6.548;2022-09-13T17:31:07;7.85;;;1.88;;
51915;SDS011;37942;53.218;6.548;2022-09-13T17:33:34;9.50;;;2.13;;
51915;SDS011;37942;53.218;6.548;2022-09-13T17:36:01;8.48;;;1.80;;
51915;SDS011;37942;53.218;6.548;2022-09-13T17:38:27;9.07;;;2.28;;
51915;SDS011;37942;53.218;6.548;2022-09-13T17:43:20;10.27;;;1.90;;
51915;SDS011;37942;53.218;6.548;2022-09-13T17:45:46;8.43;;;2.25;;
51915;SDS011;37942;53.218;6.548;2022-09-13T17:50:38;10.65;;;1.90;;
51915;SDS011;37942;53.218;6.548;2022-09-13T17:53:04;9.70;;;1.98;;
51915;SDS011;37942;53.218;6.548;2022-09-13T17:55:31;7.85;;;1.85;;
51915;SDS011;37942;53.218;6.548;2022-09-13T17:57:57;9.25;;;2.17;;
51915;SDS011;37942;53.218;6.548;2022-09-13T18:00:23;9.05;;;2.00;;
51915;SDS011;37942;53.218;6.548;2022-09-13T18:02:49;9.70;;;1.83;;
51915;SDS011;37942;53.218;6.548;2022-09-13T18:05:15;10.93;;;2.42;;
51915;SDS011;37942;53.218;6.548;2022-09-13T18:07:41;10.18;;;2.00;;
51915;SDS011;37942;53.218;6.548;2022-09-13T18:10:07;8.00;;;1.90;;
51915;SDS011;37942;53.218;6.548;2022-09-13T18:12:33;12.48;;;1.90;;
51915;SDS011;37942;53.218;6.548;2022-09-13T18:14:59;9.65;;;1.98;;
51915;SDS011;37942;53.218;6.548;2022-09-13T18:17:27;8.57;;;1.80;;
51915;SDS011;37942;53.218;6.548;2022-09-13T18:22:22;13.65;;;2.20;;
51915;SDS011;37942;53.218;6.548;2022-09-13T18:24:48;9.07;;;2.20;;
51915;SDS011;37942;53.218;6.548;2022-09-13T18:27:14;11.57;;;2.80;;
51915;SDS011;37942;53.218;6.548;2022-09-13T18:29:40;16.27;;;2.53;;
51915;SDS011;37942;53.218;6.548;2022-09-13T18:32:06;10.35;;;2.20;;
51915;SDS011;37942;53.218;6.548;2022-09-13T18:36:58;9.43;;;2.10;;
51915;SDS011;37942;53.218;6.548;2022-09-13T18:39:24;9.90;;;2.20;;
51915;SDS011;37942;53.218;6.548;2022-09-13T18:41:50;10.70;;;2.15;;
51915;SDS011;37942;53.218;6.548;2022-09-13T18:44:17;10.75;;;2.50;;
51915;SDS011;37942;53.218;6.548;2022-09-13T18:46:43;10.48;;;2.63;;
51915;SDS011;37942;53.218;6.548;2022-09-13T18:49:10;12.65;;;2.80;;
51915;SDS011;37942;53.218;6.548;2022-09-13T18:54:03;12.13;;;2.38;;